createdAt,value
2023-05-25T00:01:39.683Z,5.82
2023-05-25T00:26:33.793Z,6.13
2023-05-25T00:29:01.747Z,6.43
2023-05-25T00:31:58.028Z,6.10
2023-05-25T00:34:48.393Z,5.93
2023-05-25T00:37:24.995Z,5.50
2023-05-25T00:39:55.589Z,6.88
2023-05-25T00:42:30.029Z,6.45
2023-05-25T00:45:09.835Z,5.68
2023-05-25T00:47:58.746Z,5.97
2023-05-25T00:51:24.102Z,6.40
2023-05-25T00:54:23.834Z,6.43
2023-05-25T00:57:22.174Z,6.55
2023-05-25T00:59:59.980Z,6.70
2023-05-25T01:02:48.628Z,6.68
2023-05-25T02:28:06.926Z,6.68
2023-05-25T02:35:37.346Z,6.65
2023-05-25T03:23:15.332Z,6.60
2023-05-25T03:26:26.813Z,6.00
2023-05-25T03:29:17.997Z,6.63
2023-05-25T04:10:10.270Z,6.70
2023-05-25T04:12:49.086Z,7.40
2023-05-25T04:19:46.393Z,7.60
2023-05-25T04:22:14.556Z,6.68
2023-05-25T04:24:47.879Z,7.72
2023-05-25T04:27:22.060Z,7.40
2023-05-25T04:29:50.857Z,6.32
2023-05-25T05:59:02.948Z,6.15
2023-05-25T06:02:21.233Z,6.70
2023-05-25T06:05:21.755Z,6.57
2023-05-25T06:07:51.921Z,6.53
2023-05-25T06:10:30.050Z,7.05
2023-05-25T06:12:58.018Z,6.82
2023-05-25T06:15:28.867Z,7.13
2023-05-25T06:18:00.557Z,5.90
2023-05-25T06:20:28.505Z,6.53
2023-05-25T06:22:56.456Z,6.43
2023-05-25T06:25:23.920Z,6.25
2023-05-25T06:27:51.665Z,5.43
2023-05-25T06:30:25.389Z,5.50
2023-05-25T06:32:56.858Z,5.75
2023-05-25T06:35:29.403Z,6.63
2023-05-25T06:38:36.362Z,6.95
2023-05-25T06:41:05.891Z,5.75
2023-05-25T06:43:34.567Z,5.55
2023-05-25T06:46:23.551Z,6.05
2023-05-25T06:48:51.868Z,6.97
2023-05-25T06:51:19.745Z,5.78
2023-05-25T06:53:52.889Z,6.15
2023-05-25T06:56:20.749Z,5.82
2023-05-25T06:58:48.549Z,5.15
2023-05-25T07:01:18.022Z,6.32
2023-05-25T07:03:46.283Z,6.75
2023-05-25T07:06:13.785Z,5.35
2023-05-25T07:08:41.739Z,6.00
2023-05-25T07:11:12.704Z,5.55
2023-05-25T07:13:55.893Z,5.70
2023-05-25T07:16:27.266Z,5.88
2023-05-25T07:19:00.211Z,6.43
2023-05-25T07:21:32.058Z,6.05
2023-05-25T07:24:00.837Z,4.72
2023-05-25T07:26:28.727Z,5.13
2023-05-25T07:28:56.561Z,4.45
2023-05-25T07:31:25.777Z,5.65
2023-05-25T07:33:55.349Z,4.40
2023-05-25T07:36:24.923Z,4.00
2023-05-25T07:38:53.672Z,3.90
2023-05-25T07:41:21.953Z,4.82
2023-05-25T07:43:49.805Z,4.55
2023-05-25T07:46:17.495Z,5.32
2023-05-25T07:48:59.747Z,4.65
2023-05-25T07:52:00.183Z,4.47
2023-05-25T07:54:28.040Z,4.45
2023-05-25T07:56:55.711Z,4.05
2023-05-25T07:59:23.461Z,4.07
2023-05-25T08:01:51.688Z,3.97
2023-05-25T08:05:17.027Z,5.00
2023-05-25T08:07:48.304Z,4.13
2023-05-25T08:10:44.549Z,4.15
2023-05-25T08:13:14.282Z,4.53
2023-05-25T08:15:43.590Z,4.70
2023-05-25T08:18:21.169Z,4.43
2023-05-25T08:21:12.342Z,4.20
2023-05-25T08:23:42.943Z,4.30
2023-05-25T08:31:50.998Z,3.40
2023-05-25T08:46:51.814Z,3.40
2023-05-25T08:49:20.511Z,3.53
2023-05-25T08:51:56.389Z,4.30
2023-05-25T08:54:31.215Z,3.83
2023-05-25T08:59:56.290Z,3.78
2023-05-25T09:02:42.788Z,4.07
2023-05-25T09:05:11.104Z,3.08
2023-05-25T09:08:08.257Z,3.47
2023-05-25T09:10:37.205Z,3.50
2023-05-25T09:16:13.317Z,3.70
2023-05-25T09:18:43.823Z,3.83
2023-05-25T09:21:11.804Z,3.95
2023-05-25T09:23:41.071Z,4.00
2023-05-25T09:26:09.749Z,4.43
2023-05-25T09:28:47.039Z,4.53
2023-05-25T09:31:29.328Z,3.40
2023-05-25T09:37:33.386Z,3.70
2023-05-25T09:40:01.959Z,4.00
2023-05-25T09:42:44.545Z,3.72
2023-05-25T09:45:24.137Z,3.45
2023-05-25T09:52:08.872Z,4.00
2023-05-25T10:03:08.524Z,3.70
2023-05-25T10:05:40.872Z,4.22
2023-05-25T10:08:10.677Z,3.97
2023-05-25T10:10:40.194Z,4.18
2023-05-25T10:13:10.338Z,4.40
2023-05-25T10:15:41.618Z,3.10
2023-05-25T10:18:15.766Z,3.40
2023-05-25T10:20:46.606Z,3.50
2023-05-25T10:23:17.530Z,3.53
2023-05-25T10:25:48.869Z,3.47
2023-05-25T10:28:31.597Z,3.90
2023-05-25T10:31:02.423Z,3.47
2023-05-25T10:34:24.082Z,3.08
2023-05-25T10:36:53.052Z,3.58
2023-05-25T10:40:07.295Z,3.38
2023-05-25T10:42:39.245Z,3.28
2023-05-25T10:45:09.336Z,3.13
2023-05-25T10:47:42.176Z,3.50
2023-05-25T10:50:28.979Z,3.10
2023-05-25T10:53:05.881Z,2.83
2023-05-25T10:55:52.322Z,2.80
2023-05-25T10:58:22.689Z,3.35
2023-05-25T11:01:11.105Z,2.72
2023-05-25T11:03:58.891Z,3.33
2023-05-25T11:06:49.737Z,2.90
2023-05-25T11:10:04.584Z,3.10
2023-05-25T11:13:11.785Z,2.63
2023-05-25T11:40:58.290Z,3.25
2023-05-25T11:43:27.344Z,3.35
2023-05-25T11:45:58.302Z,3.00
2023-05-25T11:48:32.633Z,2.97
2023-05-25T11:51:06.832Z,4.00
2023-05-25T11:53:34.686Z,2.30
2023-05-25T11:58:51.020Z,3.83
2023-05-25T12:01:19.092Z,3.05
2023-05-25T12:04:44.255Z,2.75
2023-05-25T12:07:15.026Z,4.10
2023-05-25T12:10:52.599Z,2.90
2023-05-25T12:13:26.315Z,2.60
2023-05-25T12:15:58.028Z,2.90
2023-05-25T12:18:32.258Z,2.70
2023-05-25T12:21:09.750Z,2.78
2023-05-25T12:23:38.435Z,3.78
2023-05-25T12:26:09.148Z,2.80
2023-05-25T12:28:36.936Z,2.70
2023-05-25T12:31:37.230Z,3.33
2023-05-25T12:34:10.631Z,2.78
2023-05-25T12:37:13.757Z,3.60
2023-05-25T12:40:26.628Z,3.28
2023-05-25T12:42:58.846Z,3.10
2023-05-25T12:45:27.341Z,3.80
2023-05-25T12:47:58.070Z,2.65
2023-05-25T12:50:59.060Z,3.10
2023-05-25T12:57:17.484Z,3.40
2023-05-25T12:59:47.836Z,2.50
2023-05-25T13:03:20.545Z,2.95
2023-05-25T13:06:02.816Z,3.17
2023-05-25T13:08:35.703Z,2.90
2023-05-25T13:11:03.848Z,2.90
2023-05-25T13:23:06.412Z,3.35
2023-05-25T13:25:33.826Z,2.70
2023-05-25T13:28:14.422Z,2.67
2023-05-25T13:30:43.737Z,2.85
2023-05-25T13:33:16.067Z,2.63
2023-05-25T13:35:58.312Z,2.78
2023-05-25T13:38:37.150Z,2.90
2023-05-25T13:45:32.159Z,2.63
2023-05-25T13:48:39.282Z,3.17
2023-05-25T13:55:40.653Z,3.50
2023-05-25T13:58:17.105Z,2.90
2023-05-25T14:01:53.592Z,3.03
2023-05-25T14:07:28.641Z,3.28
2023-05-25T14:10:04.684Z,3.03
2023-05-25T14:16:24.507Z,2.40
2023-05-25T14:18:55.813Z,3.10
2023-05-25T14:21:27.807Z,2.85
2023-05-25T14:23:55.301Z,3.15
2023-05-25T14:26:23.520Z,2.90
2023-05-25T14:28:58.042Z,3.55
2023-05-25T14:31:39.050Z,3.10
2023-05-25T14:34:08.147Z,2.78
2023-05-25T14:36:38.896Z,3.15
2023-05-25T14:39:07.285Z,3.20
2023-05-25T14:41:35.019Z,3.00
2023-05-25T14:46:49.285Z,3.22
2023-05-25T14:49:17.393Z,5.72
2023-05-25T14:51:45.006Z,2.97
2023-05-25T14:54:13.758Z,3.00
2023-05-25T14:56:41.426Z,3.60
2023-05-25T14:59:17.353Z,2.65
2023-05-25T15:01:47.199Z,3.03
2023-05-25T15:04:14.918Z,3.05
2023-05-25T15:06:42.365Z,2.80
2023-05-25T15:09:09.844Z,3.47
2023-05-25T15:11:37.240Z,3.47
2023-05-25T15:14:30.223Z,3.28
2023-05-25T15:16:59.330Z,3.03
2023-05-25T15:19:26.919Z,3.80
2023-05-25T15:21:58.656Z,3.42
2023-05-25T15:24:27.845Z,3.25
2023-05-25T15:27:06.922Z,3.10
2023-05-25T15:30:00.086Z,3.03
2023-05-25T15:32:31.767Z,3.13
2023-05-25T15:35:02.624Z,3.05
2023-05-25T15:37:30.813Z,3.10
2023-05-25T15:39:58.553Z,3.20
2023-05-25T15:42:25.970Z,3.40
2023-05-25T15:44:53.344Z,3.65
2023-05-25T15:47:20.781Z,3.28
2023-05-25T15:49:48.420Z,3.60
2023-05-25T15:52:16.165Z,3.25
2023-05-25T15:55:17.296Z,2.88
2023-05-25T15:57:44.712Z,3.13
2023-05-25T16:00:18.336Z,2.60
2023-05-25T16:02:48.924Z,3.28
2023-05-25T16:05:19.033Z,2.85
2023-05-25T16:07:46.774Z,3.42
2023-05-25T16:14:06.829Z,3.05
2023-05-25T16:16:36.285Z,2.63
2023-05-25T16:19:14.098Z,3.00
2023-05-25T16:22:25.153Z,3.13
2023-05-25T16:27:27.542Z,3.22
2023-05-25T16:29:55.197Z,2.92
2023-05-25T16:32:22.713Z,3.83
2023-05-25T16:34:50.493Z,3.55
2023-05-25T16:37:17.913Z,3.75
2023-05-25T16:39:45.281Z,3.47
2023-05-25T16:42:12.596Z,3.55
2023-05-25T16:44:39.904Z,3.80
2023-05-25T16:47:07.254Z,3.42
2023-05-25T16:49:34.598Z,3.35
2023-05-25T16:52:05.129Z,3.47
2023-05-25T16:54:32.457Z,3.30
2023-05-25T16:56:59.921Z,3.15
2023-05-25T16:59:27.303Z,3.20
2023-05-25T17:01:54.695Z,3.40
2023-05-25T17:04:22.045Z,3.25
2023-05-25T17:06:49.500Z,3.42
2023-05-25T17:09:16.833Z,3.90
2023-05-25T17:11:44.525Z,3.42
2023-05-25T17:14:12.685Z,3.38
2023-05-25T17:16:40.122Z,3.55
2023-05-25T17:19:07.456Z,3.65
2023-05-25T17:21:34.925Z,3.42
2023-05-25T17:24:03.475Z,3.20
2023-05-25T17:26:31.288Z,3.63
2023-05-25T17:29:00.727Z,3.42
2023-05-25T17:31:28.191Z,3.03
2023-05-25T17:33:56.222Z,3.50
2023-05-25T17:36:23.712Z,3.25
2023-05-25T17:38:51.102Z,3.92
2023-05-25T17:41:18.423Z,4.07
2023-05-25T17:43:46.403Z,3.40
2023-05-25T17:46:32.962Z,3.40
2023-05-25T17:49:00.525Z,3.20
2023-05-25T17:51:27.972Z,3.40
2023-05-25T17:53:56.354Z,3.30
2023-05-25T17:56:23.609Z,2.97
2023-05-25T17:58:50.617Z,3.88
2023-05-25T18:01:19.372Z,3.13
2023-05-25T18:03:46.898Z,3.65
2023-05-25T18:06:14.599Z,3.55
2023-05-25T18:08:43.717Z,3.60
2023-05-25T18:11:10.887Z,3.22
2023-05-25T18:13:38.312Z,3.92
2023-05-25T18:16:05.524Z,3.92
2023-05-25T18:18:32.559Z,3.72
2023-05-25T18:21:00.565Z,3.75
2023-05-25T18:23:28.169Z,4.10
2023-05-25T18:25:55.191Z,3.50
2023-05-25T18:28:23.750Z,4.00
2023-05-25T18:30:51.008Z,3.60
2023-05-25T18:33:18.161Z,3.08
2023-05-25T18:35:46.774Z,3.50
2023-05-25T18:38:14.018Z,3.75
2023-05-25T18:40:41.597Z,3.15
2023-05-25T18:43:08.942Z,4.07
2023-05-25T18:45:37.764Z,3.38
2023-05-25T18:48:09.078Z,3.25
2023-05-25T18:50:37.678Z,3.67
2023-05-25T18:53:11.303Z,3.88
2023-05-25T18:55:38.834Z,3.30
2023-05-25T18:58:07.142Z,3.78
2023-05-25T19:00:35.372Z,3.65
2023-05-25T19:03:03.240Z,3.78
2023-05-25T19:05:30.724Z,3.63
2023-05-25T19:08:00.746Z,3.80
2023-05-25T19:10:28.923Z,3.47
2023-05-25T19:12:56.300Z,3.97
2023-05-25T19:15:23.562Z,3.92
2023-05-25T19:17:50.825Z,3.63
2023-05-25T19:20:18.672Z,4.10
2023-05-25T19:22:45.872Z,4.70
2023-05-25T19:25:13.426Z,3.55
2023-05-25T19:27:40.957Z,4.60
2023-05-25T19:30:08.497Z,4.07
2023-05-25T19:32:39.042Z,4.22
2023-05-25T19:35:08.022Z,3.75
2023-05-25T19:37:44.139Z,3.90
2023-05-25T19:40:14.581Z,4.05
2023-05-25T19:42:46.162Z,3.30
2023-05-25T19:45:13.443Z,3.28
2023-05-25T19:47:41.464Z,3.55
2023-05-25T19:50:08.896Z,3.40
2023-05-25T19:52:36.056Z,4.07
2023-05-25T19:55:03.219Z,3.97
2023-05-25T19:57:31.635Z,4.47
2023-05-25T19:59:58.922Z,3.90
2023-05-25T20:02:27.649Z,3.70
2023-05-25T20:04:54.978Z,4.10
2023-05-25T20:07:22.408Z,4.10
2023-05-25T20:09:49.545Z,4.25
2023-05-25T20:12:16.999Z,3.97
2023-05-25T20:14:44.968Z,3.42
2023-05-25T20:17:11.922Z,4.28
2023-05-25T20:19:39.086Z,3.88
2023-05-25T20:22:08.230Z,3.95
2023-05-25T20:24:35.446Z,3.00
2023-05-25T20:27:04.162Z,3.85
2023-05-25T20:29:31.248Z,3.22
2023-05-25T20:31:58.301Z,4.00
2023-05-25T20:34:26.018Z,3.80
2023-05-25T20:36:53.507Z,3.33
2023-05-25T20:39:20.552Z,3.80
2023-05-25T20:41:48.230Z,4.03
2023-05-25T20:44:16.340Z,3.88
2023-05-25T20:46:43.515Z,3.95
2023-05-25T20:49:11.662Z,4.10
2023-05-25T20:51:39.653Z,3.85
2023-05-25T20:54:06.699Z,4.13
2023-05-25T20:56:34.468Z,4.95
2023-05-25T20:59:01.596Z,3.75
2023-05-25T21:01:29.505Z,3.72
2023-05-25T21:03:56.653Z,3.13
2023-05-25T21:06:23.718Z,4.15
2023-05-25T21:08:50.817Z,3.97
2023-05-25T21:11:18.772Z,4.43
2023-05-25T21:13:46.208Z,5.20
2023-05-25T21:16:13.218Z,4.60
2023-05-25T21:18:40.360Z,4.30
2023-05-25T21:21:07.992Z,4.70
2023-05-25T21:23:39.928Z,3.83
2023-05-25T21:26:07.520Z,4.85
2023-05-25T21:28:34.509Z,4.63
2023-05-25T21:31:01.685Z,4.22
2023-05-25T21:33:30.904Z,4.22
2023-05-25T21:36:01.391Z,4.32
2023-05-25T21:38:28.964Z,4.03
2023-05-25T21:40:56.077Z,4.68
2023-05-25T21:43:23.026Z,3.80
2023-05-25T21:45:49.974Z,4.47
2023-05-25T21:48:17.566Z,4.88
2023-05-25T21:50:44.507Z,4.63
2023-05-25T21:53:11.553Z,4.40
2023-05-25T21:55:38.553Z,5.25
2023-05-25T21:58:05.567Z,5.28
2023-05-25T22:00:35.199Z,5.28
2023-05-25T22:03:03.674Z,5.15
2023-05-25T22:05:35.381Z,4.60
2023-05-25T22:08:07.157Z,5.28
2023-05-25T22:10:34.297Z,4.85
2023-05-25T22:13:02.091Z,4.85
2023-05-25T22:15:29.044Z,5.50
2023-05-25T22:17:56.844Z,5.30
2023-05-25T22:20:24.283Z,4.70
2023-05-25T22:22:51.373Z,5.10
2023-05-25T22:25:18.974Z,5.43
2023-05-25T22:27:46.052Z,5.55
2023-05-25T22:30:13.415Z,5.05
2023-05-25T22:32:40.596Z,4.78
2023-05-25T22:35:08.427Z,5.43
2023-05-25T22:37:35.564Z,5.75
2023-05-25T22:40:03.960Z,5.43
2023-05-25T22:42:31.340Z,4.30
2023-05-25T22:44:58.879Z,4.55
2023-05-25T22:47:26.801Z,5.28
2023-05-25T22:49:54.170Z,3.90
2023-05-25T22:52:21.600Z,4.30
2023-05-25T22:54:49.002Z,4.55
2023-05-25T22:57:16.448Z,4.50
2023-05-25T22:59:43.857Z,4.38
2023-05-25T23:02:11.333Z,5.50
2023-05-25T23:04:40.237Z,5.40
2023-05-25T23:07:07.718Z,5.05
2023-05-25T23:09:35.107Z,5.78
2023-05-25T23:12:02.554Z,5.40
2023-05-25T23:14:30.626Z,5.60
2023-05-25T23:16:58.089Z,5.35
2023-05-25T23:19:25.792Z,5.93
2023-05-25T23:21:54.366Z,5.28
2023-05-25T23:24:21.854Z,4.78
2023-05-25T23:26:49.405Z,6.10
2023-05-25T23:29:16.883Z,5.60
2023-05-25T23:31:44.401Z,5.32
2023-05-25T23:34:12.165Z,5.20
2023-05-25T23:36:40.666Z,5.18
2023-05-25T23:39:08.155Z,4.90
2023-05-25T23:41:35.723Z,5.28
2023-05-25T23:44:03.099Z,5.82
2023-05-25T23:46:31.786Z,5.22
2023-05-25T23:48:59.278Z,5.22
2023-05-25T23:51:26.701Z,5.63
2023-05-25T23:53:54.163Z,5.57
2023-05-25T23:56:21.982Z,5.97
2023-05-25T23:58:49.590Z,4.95
